sensor_id;sensor_type;location;lat;lon;timestamp;P1;durP1;ratioP1;P2;durP2;ratioP2
74363;SDS011;62797;49.740;10.154;2022-12-10T00:01:46;57.63;;;24.02;;
74363;SDS011;62797;49.740;10.154;2022-12-10T00:04:13;55.28;;;23.33;;
74363;SDS011;62797;49.740;10.154;2022-12-10T00:09:06;61.65;;;26.95;;
74363;SDS011;62797;49.740;10.154;2022-12-10T00:11:34;62.63;;;27.67;;
74363;SDS011;62797;49.740;10.154;2022-12-10T00:13:59;57.38;;;25.85;;
74363;SDS011;62797;49.740;10.154;2022-12-10T00:16:26;49.30;;;24.33;;
74363;SDS011;62797;49.740;10.154;2022-12-10T00:18:53;58.15;;;29.48;;
74363;SDS011;62797;49.740;10.154;2022-12-10T00:21:20;46.85;;;23.02;;
74363;SDS011;62797;49.740;10.154;2022-12-10T00:23:47;52.83;;;24.52;;
74363;SDS011;62797;49.740;10.154;2022-12-10T00:26:15;51.60;;;24.52;;
74363;SDS011;62797;49.740;10.154;2022-12-10T00:28:45;54.97;;;25.10;;
74363;SDS011;62797;49.740;10.154;2022-12-10T00:31:13;51.42;;;24.50;;
74363;SDS011;62797;49.740;10.154;2022-12-10T00:33:44;52.20;;;24.52;;
74363;SDS011;62797;49.740;10.154;2022-12-10T00:36:12;52.95;;;23.48;;
74363;SDS011;62797;49.740;10.154;2022-12-10T00:38:40;50.60;;;25.05;;
74363;SDS011;62797;49.740;10.154;2022-12-10T00:41:09;53.28;;;24.17;;
74363;SDS011;62797;49.740;10.154;2022-12-10T00:43:36;55.80;;;25.13;;
74363;SDS011;62797;49.740;10.154;2022-12-10T00:46:02;48.92;;;23.38;;
74363;SDS011;62797;49.740;10.154;2022-12-10T00:48:28;53.63;;;22.88;;
74363;SDS011;62797;49.740;10.154;2022-12-10T00:50:54;52.38;;;23.35;;
74363;SDS011;62797;49.740;10.154;2022-12-10T00:53:24;44.75;;;20.75;;
74363;SDS011;62797;49.740;10.154;2022-12-10T00:55:51;48.67;;;23.08;;
74363;SDS011;62797;49.740;10.154;2022-12-10T01:00:44;52.28;;;24.90;;
74363;SDS011;62797;49.740;10.154;2022-12-10T01:03:09;53.57;;;23.77;;
74363;SDS011;62797;49.740;10.154;2022-12-10T01:05:35;52.28;;;25.92;;
74363;SDS011;62797;49.740;10.154;2022-12-10T01:08:01;57.90;;;27.08;;
74363;SDS011;62797;49.740;10.154;2022-12-10T01:10:27;49.80;;;23.92;;
74363;SDS011;62797;49.740;10.154;2022-12-10T01:12:52;55.20;;;26.83;;
74363;SDS011;62797;49.740;10.154;2022-12-10T01:15:18;55.67;;;26.33;;
74363;SDS011;62797;49.740;10.154;2022-12-10T01:17:44;53.17;;;26.10;;
74363;SDS011;62797;49.740;10.154;2022-12-10T01:20:10;64.00;;;27.73;;
74363;SDS011;62797;49.740;10.154;2022-12-10T01:22:37;60.65;;;26.23;;
74363;SDS011;62797;49.740;10.154;2022-12-10T01:25:03;72.88;;;30.38;;
74363;SDS011;62797;49.740;10.154;2022-12-10T01:27:29;55.53;;;25.27;;
74363;SDS011;62797;49.740;10.154;2022-12-10T01:29:55;53.70;;;25.27;;
74363;SDS011;62797;49.740;10.154;2022-12-10T01:32:20;47.65;;;22.52;;
74363;SDS011;62797;49.740;10.154;2022-12-10T01:34:46;49.55;;;23.65;;
74363;SDS011;62797;49.740;10.154;2022-12-10T01:37:12;49.05;;;23.42;;
74363;SDS011;62797;49.740;10.154;2022-12-10T01:39:37;52.17;;;24.38;;
74363;SDS011;62797;49.740;10.154;2022-12-10T01:42:04;55.88;;;23.23;;
74363;SDS011;62797;49.740;10.154;2022-12-10T01:46:57;51.88;;;23.00;;
74363;SDS011;62797;49.740;10.154;2022-12-10T01:49:26;56.60;;;26.98;;
74363;SDS011;62797;49.740;10.154;2022-12-10T01:51:57;65.40;;;29.15;;
74363;SDS011;62797;49.740;10.154;2022-12-10T01:54:25;54.53;;;25.33;;
74363;SDS011;62797;49.740;10.154;2022-12-10T01:57:07;57.35;;;25.65;;
74363;SDS011;62797;49.740;10.154;2022-12-10T01:59:36;60.92;;;27.83;;
74363;SDS011;62797;49.740;10.154;2022-12-10T02:07:55;62.25;;;26.88;;
74363;SDS011;62797;49.740;10.154;2022-12-10T02:16:25;55.90;;;24.90;;
74363;SDS011;62797;49.740;10.154;2022-12-10T02:21:46;50.97;;;24.05;;
74363;SDS011;62797;49.740;10.154;2022-12-10T02:24:18;55.50;;;24.50;;
74363;SDS011;62797;49.740;10.154;2022-12-10T02:26:52;54.47;;;24.00;;
74363;SDS011;62797;49.740;10.154;2022-12-10T02:29:37;58.58;;;23.95;;
74363;SDS011;62797;49.740;10.154;2022-12-10T02:32:06;47.70;;;23.80;;
74363;SDS011;62797;49.740;10.154;2022-12-10T02:34:39;55.42;;;25.88;;
74363;SDS011;62797;49.740;10.154;2022-12-10T02:37:15;53.35;;;25.15;;
74363;SDS011;62797;49.740;10.154;2022-12-10T02:39:48;51.13;;;22.65;;
74363;SDS011;62797;49.740;10.154;2022-12-10T02:42:17;47.35;;;23.25;;
74363;SDS011;62797;49.740;10.154;2022-12-10T02:44:46;40.33;;;20.13;;
74363;SDS011;62797;49.740;10.154;2022-12-10T02:47:13;45.28;;;22.45;;
74363;SDS011;62797;49.740;10.154;2022-12-10T02:49:41;62.55;;;25.92;;
74363;SDS011;62797;49.740;10.154;2022-12-10T02:52:08;52.22;;;23.45;;
74363;SDS011;62797;49.740;10.154;2022-12-10T02:54:47;50.13;;;22.80;;
74363;SDS011;62797;49.740;10.154;2022-12-10T03:00:05;46.70;;;22.58;;
74363;SDS011;62797;49.740;10.154;2022-12-10T03:08:25;53.38;;;22.10;;
74363;SDS011;62797;49.740;10.154;2022-12-10T03:11:16;57.50;;;25.73;;
74363;SDS011;62797;49.740;10.154;2022-12-10T03:16:29;45.55;;;22.30;;
74363;SDS011;62797;49.740;10.154;2022-12-10T03:19:00;48.80;;;21.95;;
74363;SDS011;62797;49.740;10.154;2022-12-10T03:21:29;48.80;;;23.25;;
74363;SDS011;62797;49.740;10.154;2022-12-10T03:23:57;58.25;;;21.58;;
74363;SDS011;62797;49.740;10.154;2022-12-10T03:26:23;43.53;;;20.85;;
74363;SDS011;62797;49.740;10.154;2022-12-10T03:28:50;44.88;;;20.63;;
74363;SDS011;62797;49.740;10.154;2022-12-10T03:31:20;44.78;;;20.77;;
74363;SDS011;62797;49.740;10.154;2022-12-10T03:33:46;46.67;;;22.50;;
74363;SDS011;62797;49.740;10.154;2022-12-10T03:36:13;44.28;;;20.85;;
74363;SDS011;62797;49.740;10.154;2022-12-10T03:38:39;46.22;;;19.98;;
74363;SDS011;62797;49.740;10.154;2022-12-10T03:41:05;48.40;;;21.50;;
74363;SDS011;62797;49.740;10.154;2022-12-10T03:43:31;51.75;;;21.60;;
74363;SDS011;62797;49.740;10.154;2022-12-10T03:45:58;56.60;;;21.83;;
74363;SDS011;62797;49.740;10.154;2022-12-10T03:48:23;48.80;;;22.55;;
74363;SDS011;62797;49.740;10.154;2022-12-10T03:50:49;49.63;;;21.73;;
74363;SDS011;62797;49.740;10.154;2022-12-10T03:53:14;52.00;;;21.08;;
74363;SDS011;62797;49.740;10.154;2022-12-10T03:55:40;45.72;;;21.80;;
74363;SDS011;62797;49.740;10.154;2022-12-10T03:58:05;55.90;;;22.35;;
74363;SDS011;62797;49.740;10.154;2022-12-10T04:00:31;56.80;;;26.00;;
74363;SDS011;62797;49.740;10.154;2022-12-10T04:02:56;48.28;;;21.38;;
74363;SDS011;62797;49.740;10.154;2022-12-10T04:05:22;57.85;;;26.65;;
74363;SDS011;62797;49.740;10.154;2022-12-10T04:07:47;49.72;;;20.65;;
74363;SDS011;62797;49.740;10.154;2022-12-10T04:10:13;50.35;;;24.70;;
74363;SDS011;62797;49.740;10.154;2022-12-10T04:12:39;48.20;;;22.45;;
74363;SDS011;62797;49.740;10.154;2022-12-10T04:15:05;44.85;;;21.73;;
74363;SDS011;62797;49.740;10.154;2022-12-10T04:17:57;60.25;;;25.33;;
74363;SDS011;62797;49.740;10.154;2022-12-10T04:20:23;47.20;;;24.75;;
74363;SDS011;62797;49.740;10.154;2022-12-10T04:23:07;47.85;;;23.67;;
74363;SDS011;62797;49.740;10.154;2022-12-10T04:25:51;47.13;;;20.73;;
74363;SDS011;62797;49.740;10.154;2022-12-10T04:28:36;51.72;;;24.33;;
74363;SDS011;62797;49.740;10.154;2022-12-10T04:31:01;68.75;;;27.13;;
74363;SDS011;62797;49.740;10.154;2022-12-10T04:33:27;52.50;;;24.08;;
74363;SDS011;62797;49.740;10.154;2022-12-10T04:35:52;59.40;;;26.92;;
74363;SDS011;62797;49.740;10.154;2022-12-10T04:38:18;56.00;;;27.50;;
74363;SDS011;62797;49.740;10.154;2022-12-10T04:40:43;58.13;;;26.48;;
74363;SDS011;62797;49.740;10.154;2022-12-10T04:43:09;64.32;;;27.02;;
74363;SDS011;62797;49.740;10.154;2022-12-10T04:45:34;52.30;;;23.57;;
74363;SDS011;62797;49.740;10.154;2022-12-10T04:48:00;56.88;;;24.10;;
74363;SDS011;62797;49.740;10.154;2022-12-10T04:50:26;48.75;;;21.48;;
74363;SDS011;62797;49.740;10.154;2022-12-10T04:52:51;46.08;;;23.17;;
74363;SDS011;62797;49.740;10.154;2022-12-10T04:55:17;47.67;;;24.80;;
74363;SDS011;62797;49.740;10.154;2022-12-10T04:58:41;51.67;;;23.85;;
74363;SDS011;62797;49.740;10.154;2022-12-10T05:01:07;48.55;;;23.63;;
74363;SDS011;62797;49.740;10.154;2022-12-10T05:03:34;64.88;;;27.02;;
74363;SDS011;62797;49.740;10.154;2022-12-10T05:08:27;47.22;;;22.25;;
74363;SDS011;62797;49.740;10.154;2022-12-10T05:10:54;45.70;;;20.95;;
74363;SDS011;62797;49.740;10.154;2022-12-10T05:13:20;43.08;;;21.45;;
74363;SDS011;62797;49.740;10.154;2022-12-10T05:15:46;43.15;;;20.85;;
74363;SDS011;62797;49.740;10.154;2022-12-10T05:18:11;41.33;;;20.83;;
74363;SDS011;62797;49.740;10.154;2022-12-10T05:20:37;46.72;;;21.50;;
74363;SDS011;62797;49.740;10.154;2022-12-10T05:23:02;51.80;;;23.92;;
74363;SDS011;62797;49.740;10.154;2022-12-10T05:25:47;54.22;;;23.63;;
74363;SDS011;62797;49.740;10.154;2022-12-10T05:28:19;52.22;;;25.30;;
74363;SDS011;62797;49.740;10.154;2022-12-10T05:30:45;50.47;;;23.50;;
74363;SDS011;62797;49.740;10.154;2022-12-10T05:33:11;52.72;;;24.30;;
74363;SDS011;62797;49.740;10.154;2022-12-10T05:35:37;45.38;;;20.42;;
74363;SDS011;62797;49.740;10.154;2022-12-10T05:38:02;51.78;;;21.88;;
74363;SDS011;62797;49.740;10.154;2022-12-10T05:40:28;56.35;;;25.50;;
74363;SDS011;62797;49.740;10.154;2022-12-10T05:42:53;64.18;;;24.10;;
74363;SDS011;62797;49.740;10.154;2022-12-10T05:45:19;45.30;;;21.15;;
74363;SDS011;62797;49.740;10.154;2022-12-10T05:47:44;50.10;;;23.57;;
74363;SDS011;62797;49.740;10.154;2022-12-10T05:50:10;48.70;;;21.50;;
74363;SDS011;62797;49.740;10.154;2022-12-10T05:52:36;54.97;;;25.43;;
74363;SDS011;62797;49.740;10.154;2022-12-10T05:55:01;60.10;;;25.50;;
74363;SDS011;62797;49.740;10.154;2022-12-10T05:57:27;53.65;;;25.63;;
74363;SDS011;62797;49.740;10.154;2022-12-10T05:59:52;55.10;;;26.17;;
74363;SDS011;62797;49.740;10.154;2022-12-10T06:02:18;53.63;;;25.02;;
74363;SDS011;62797;49.740;10.154;2022-12-10T06:04:43;47.77;;;22.23;;
74363;SDS011;62797;49.740;10.154;2022-12-10T06:07:09;51.83;;;23.98;;
74363;SDS011;62797;49.740;10.154;2022-12-10T06:09:34;50.30;;;23.58;;
74363;SDS011;62797;49.740;10.154;2022-12-10T06:12:00;64.00;;;28.58;;
74363;SDS011;62797;49.740;10.154;2022-12-10T06:14:26;68.50;;;30.50;;
74363;SDS011;62797;49.740;10.154;2022-12-10T06:16:51;66.05;;;31.02;;
74363;SDS011;62797;49.740;10.154;2022-12-10T06:19:17;61.30;;;28.20;;
74363;SDS011;62797;49.740;10.154;2022-12-10T06:21:42;74.20;;;31.33;;
74363;SDS011;62797;49.740;10.154;2022-12-10T06:24:08;61.97;;;30.00;;
74363;SDS011;62797;49.740;10.154;2022-12-10T06:26:33;65.32;;;30.15;;
74363;SDS011;62797;49.740;10.154;2022-12-10T06:28:59;55.15;;;26.48;;
74363;SDS011;62797;49.740;10.154;2022-12-10T06:31:25;56.63;;;24.92;;
74363;SDS011;62797;49.740;10.154;2022-12-10T06:33:51;70.43;;;26.90;;
74363;SDS011;62797;49.740;10.154;2022-12-10T06:36:18;61.15;;;28.67;;
74363;SDS011;62797;49.740;10.154;2022-12-10T06:41:11;59.15;;;26.23;;
74363;SDS011;62797;49.740;10.154;2022-12-10T06:43:38;53.50;;;25.77;;
74363;SDS011;62797;49.740;10.154;2022-12-10T06:46:07;67.50;;;30.83;;
74363;SDS011;62797;49.740;10.154;2022-12-10T06:48:35;69.35;;;30.65;;
74363;SDS011;62797;49.740;10.154;2022-12-10T06:51:01;58.45;;;27.17;;
74363;SDS011;62797;49.740;10.154;2022-12-10T06:53:27;57.50;;;24.17;;
74363;SDS011;62797;49.740;10.154;2022-12-10T06:55:52;55.00;;;26.02;;
74363;SDS011;62797;49.740;10.154;2022-12-10T06:58:18;50.00;;;23.03;;
74363;SDS011;62797;49.740;10.154;2022-12-10T07:00:44;54.70;;;25.47;;
74363;SDS011;62797;49.740;10.154;2022-12-10T07:03:09;58.27;;;27.03;;
74363;SDS011;62797;49.740;10.154;2022-12-10T07:05:35;57.20;;;24.55;;
74363;SDS011;62797;49.740;10.154;2022-12-10T07:08:00;56.50;;;25.25;;
74363;SDS011;62797;49.740;10.154;2022-12-10T07:10:26;59.13;;;27.47;;
74363;SDS011;62797;49.740;10.154;2022-12-10T07:12:51;55.03;;;26.53;;
74363;SDS011;62797;49.740;10.154;2022-12-10T07:15:17;60.50;;;26.98;;
74363;SDS011;62797;49.740;10.154;2022-12-10T07:17:44;58.80;;;26.25;;
74363;SDS011;62797;49.740;10.154;2022-12-10T07:20:09;49.43;;;23.97;;
74363;SDS011;62797;49.740;10.154;2022-12-10T07:22:36;62.38;;;26.33;;
74363;SDS011;62797;49.740;10.154;2022-12-10T07:25:02;55.05;;;25.55;;
74363;SDS011;62797;49.740;10.154;2022-12-10T07:27:28;62.95;;;27.45;;
74363;SDS011;62797;49.740;10.154;2022-12-10T07:29:55;54.60;;;25.27;;
74363;SDS011;62797;49.740;10.154;2022-12-10T07:32:21;50.35;;;25.10;;
74363;SDS011;62797;49.740;10.154;2022-12-10T07:34:47;51.65;;;25.08;;
74363;SDS011;62797;49.740;10.154;2022-12-10T07:37:12;49.50;;;23.10;;
74363;SDS011;62797;49.740;10.154;2022-12-10T07:39:38;48.63;;;22.13;;
74363;SDS011;62797;49.740;10.154;2022-12-10T07:42:03;65.63;;;30.33;;
74363;SDS011;62797;49.740;10.154;2022-12-10T07:44:29;58.38;;;26.25;;
74363;SDS011;62797;49.740;10.154;2022-12-10T07:46:55;56.28;;;28.00;;
74363;SDS011;62797;49.740;10.154;2022-12-10T07:49:20;55.53;;;26.38;;
74363;SDS011;62797;49.740;10.154;2022-12-10T07:51:47;56.13;;;25.48;;
74363;SDS011;62797;49.740;10.154;2022-12-10T07:54:14;52.92;;;24.77;;
74363;SDS011;62797;49.740;10.154;2022-12-10T07:56:41;63.40;;;25.45;;
74363;SDS011;62797;49.740;10.154;2022-12-10T07:59:07;55.70;;;26.73;;
74363;SDS011;62797;49.740;10.154;2022-12-10T08:01:33;62.03;;;26.58;;
74363;SDS011;62797;49.740;10.154;2022-12-10T08:03:58;51.28;;;24.33;;
74363;SDS011;62797;49.740;10.154;2022-12-10T08:06:24;52.53;;;25.83;;
74363;SDS011;62797;49.740;10.154;2022-12-10T08:08:51;50.92;;;27.05;;
74363;SDS011;62797;49.740;10.154;2022-12-10T08:11:18;61.33;;;28.00;;
74363;SDS011;62797;49.740;10.154;2022-12-10T08:13:44;50.67;;;25.15;;
74363;SDS011;62797;49.740;10.154;2022-12-10T08:16:18;50.67;;;24.23;;
74363;SDS011;62797;49.740;10.154;2022-12-10T08:18:45;51.17;;;24.90;;
74363;SDS011;62797;49.740;10.154;2022-12-10T08:21:12;47.42;;;22.98;;
74363;SDS011;62797;49.740;10.154;2022-12-10T08:23:39;59.40;;;26.45;;
74363;SDS011;62797;49.740;10.154;2022-12-10T08:28:32;55.80;;;25.67;;
74363;SDS011;62797;49.740;10.154;2022-12-10T08:30:58;59.65;;;29.67;;
74363;SDS011;62797;49.740;10.154;2022-12-10T08:33:24;65.73;;;28.03;;
74363;SDS011;62797;49.740;10.154;2022-12-10T08:35:49;56.00;;;27.73;;
74363;SDS011;62797;49.740;10.154;2022-12-10T08:38:15;51.97;;;24.90;;
74363;SDS011;62797;49.740;10.154;2022-12-10T08:40:40;52.47;;;25.53;;
74363;SDS011;62797;49.740;10.154;2022-12-10T08:43:07;60.47;;;27.55;;
74363;SDS011;62797;49.740;10.154;2022-12-10T08:45:33;57.42;;;25.92;;
74363;SDS011;62797;49.740;10.154;2022-12-10T08:47:59;53.83;;;25.65;;
74363;SDS011;62797;49.740;10.154;2022-12-10T08:50:28;65.78;;;26.75;;
74363;SDS011;62797;49.740;10.154;2022-12-10T08:52:53;48.65;;;25.30;;
74363;SDS011;62797;49.740;10.154;2022-12-10T08:55:19;54.33;;;25.47;;
74363;SDS011;62797;49.740;10.154;2022-12-10T08:57:44;69.63;;;29.50;;
74363;SDS011;62797;49.740;10.154;2022-12-10T09:00:10;60.53;;;26.87;;
74363;SDS011;62797;49.740;10.154;2022-12-10T09:02:38;59.83;;;26.02;;
74363;SDS011;62797;49.740;10.154;2022-12-10T09:05:04;57.53;;;27.60;;
74363;SDS011;62797;49.740;10.154;2022-12-10T09:07:30;55.33;;;25.90;;
74363;SDS011;62797;49.740;10.154;2022-12-10T09:09:55;61.40;;;29.17;;
74363;SDS011;62797;49.740;10.154;2022-12-10T09:12:21;63.40;;;31.47;;
74363;SDS011;62797;49.740;10.154;2022-12-10T09:14:46;62.07;;;28.60;;
74363;SDS011;62797;49.740;10.154;2022-12-10T09:17:12;54.47;;;24.17;;
74363;SDS011;62797;49.740;10.154;2022-12-10T09:19:37;54.47;;;26.45;;
74363;SDS011;62797;49.740;10.154;2022-12-10T09:22:03;57.10;;;27.40;;
74363;SDS011;62797;49.740;10.154;2022-12-10T09:24:28;53.72;;;26.08;;
74363;SDS011;62797;49.740;10.154;2022-12-10T09:26:54;54.03;;;26.83;;
74363;SDS011;62797;49.740;10.154;2022-12-10T09:29:20;60.58;;;29.08;;
74363;SDS011;62797;49.740;10.154;2022-12-10T09:31:49;55.85;;;29.98;;
74363;SDS011;62797;49.740;10.154;2022-12-10T09:34:16;54.88;;;26.85;;
74363;SDS011;62797;49.740;10.154;2022-12-10T09:36:41;57.50;;;28.63;;
74363;SDS011;62797;49.740;10.154;2022-12-10T09:39:07;49.00;;;24.95;;
74363;SDS011;62797;49.740;10.154;2022-12-10T09:49:38;48.33;;;21.85;;
74363;SDS011;62797;49.740;10.154;2022-12-10T09:52:10;45.83;;;19.52;;
74363;SDS011;62797;49.740;10.154;2022-12-10T09:54:48;49.53;;;23.38;;
74363;SDS011;62797;49.740;10.154;2022-12-10T09:57:25;42.90;;;19.77;;
74363;SDS011;62797;49.740;10.154;2022-12-10T09:59:51;48.03;;;22.33;;
74363;SDS011;62797;49.740;10.154;2022-12-10T10:02:24;43.75;;;20.60;;
74363;SDS011;62797;49.740;10.154;2022-12-10T10:07:31;59.85;;;24.17;;
74363;SDS011;62797;49.740;10.154;2022-12-10T10:10:23;48.33;;;23.38;;
74363;SDS011;62797;49.740;10.154;2022-12-10T10:12:55;58.55;;;25.33;;
74363;SDS011;62797;49.740;10.154;2022-12-10T10:15:30;52.20;;;23.70;;
74363;SDS011;62797;49.740;10.154;2022-12-10T10:17:58;45.58;;;22.77;;
74363;SDS011;62797;49.740;10.154;2022-12-10T10:20:33;51.67;;;23.42;;
74363;SDS011;62797;49.740;10.154;2022-12-10T10:23:00;45.83;;;21.90;;
74363;SDS011;62797;49.740;10.154;2022-12-10T10:25:25;43.20;;;22.13;;
74363;SDS011;62797;49.740;10.154;2022-12-10T10:27:52;50.95;;;23.58;;
74363;SDS011;62797;49.740;10.154;2022-12-10T10:30:19;44.07;;;22.50;;
74363;SDS011;62797;49.740;10.154;2022-12-10T10:32:56;45.63;;;21.90;;
74363;SDS011;62797;49.740;10.154;2022-12-10T10:35:28;43.45;;;21.10;;
74363;SDS011;62797;49.740;10.154;2022-12-10T10:38:01;46.63;;;22.83;;
74363;SDS011;62797;49.740;10.154;2022-12-10T10:40:32;46.75;;;22.50;;
74363;SDS011;62797;49.740;10.154;2022-12-10T10:43:05;47.15;;;22.05;;
74363;SDS011;62797;49.740;10.154;2022-12-10T10:45:38;45.50;;;20.30;;
74363;SDS011;62797;49.740;10.154;2022-12-10T10:48:15;51.38;;;24.70;;
74363;SDS011;62797;49.740;10.154;2022-12-10T10:53:23;43.63;;;21.00;;
74363;SDS011;62797;49.740;10.154;2022-12-10T10:56:11;50.97;;;23.90;;
74363;SDS011;62797;49.740;10.154;2022-12-10T11:04:24;49.75;;;25.23;;
74363;SDS011;62797;49.740;10.154;2022-12-10T11:06:56;40.58;;;19.05;;
74363;SDS011;62797;49.740;10.154;2022-12-10T11:09:30;42.45;;;21.95;;
74363;SDS011;62797;49.740;10.154;2022-12-10T11:12:20;53.20;;;24.02;;
74363;SDS011;62797;49.740;10.154;2022-12-10T11:14:52;48.22;;;22.98;;
74363;SDS011;62797;49.740;10.154;2022-12-10T11:17:23;46.70;;;22.47;;
74363;SDS011;62797;49.740;10.154;2022-12-10T11:19:54;47.20;;;22.58;;
74363;SDS011;62797;49.740;10.154;2022-12-10T11:22:41;41.45;;;21.40;;
74363;SDS011;62797;49.740;10.154;2022-12-10T11:25:37;43.58;;;21.88;;
74363;SDS011;62797;49.740;10.154;2022-12-10T11:36:24;47.30;;;21.15;;
74363;SDS011;62797;49.740;10.154;2022-12-10T11:41:48;47.95;;;21.90;;
74363;SDS011;62797;49.740;10.154;2022-12-10T11:44:25;48.33;;;22.48;;
74363;SDS011;62797;49.740;10.154;2022-12-10T11:47:28;42.17;;;20.15;;
74363;SDS011;62797;49.740;10.154;2022-12-10T11:50:12;43.88;;;21.50;;
74363;SDS011;62797;49.740;10.154;2022-12-10T11:53:04;42.30;;;20.52;;
74363;SDS011;62797;49.740;10.154;2022-12-10T11:55:58;43.80;;;22.05;;
74363;SDS011;62797;49.740;10.154;2022-12-10T11:58:38;43.50;;;20.35;;
74363;SDS011;62797;49.740;10.154;2022-12-10T12:01:30;39.97;;;19.20;;
74363;SDS011;62797;49.740;10.154;2022-12-10T12:17:24;39.45;;;19.02;;
74363;SDS011;62797;49.740;10.154;2022-12-10T12:19:53;43.05;;;19.77;;
74363;SDS011;62797;49.740;10.154;2022-12-10T12:22:24;39.58;;;18.73;;
74363;SDS011;62797;49.740;10.154;2022-12-10T12:24:54;38.80;;;19.30;;
74363;SDS011;62797;49.740;10.154;2022-12-10T12:32:45;42.63;;;20.30;;
74363;SDS011;62797;49.740;10.154;2022-12-10T12:38:06;47.90;;;22.77;;
74363;SDS011;62797;49.740;10.154;2022-12-10T12:40:59;44.22;;;20.50;;
74363;SDS011;62797;49.740;10.154;2022-12-10T12:46:02;40.13;;;18.25;;
74363;SDS011;62797;49.740;10.154;2022-12-10T12:48:53;40.22;;;19.52;;
74363;SDS011;62797;49.740;10.154;2022-12-10T12:51:26;40.13;;;19.48;;
74363;SDS011;62797;49.740;10.154;2022-12-10T12:53:59;47.40;;;21.02;;
74363;SDS011;62797;49.740;10.154;2022-12-10T12:56:27;42.50;;;20.03;;
74363;SDS011;62797;49.740;10.154;2022-12-10T13:04:00;35.45;;;18.02;;
74363;SDS011;62797;49.740;10.154;2022-12-10T13:06:32;46.63;;;21.08;;
74363;SDS011;62797;49.740;10.154;2022-12-10T13:11:38;44.97;;;19.80;;
74363;SDS011;62797;49.740;10.154;2022-12-10T13:32:52;40.33;;;20.02;;
74363;SDS011;62797;49.740;10.154;2022-12-10T13:35:29;42.72;;;19.48;;
74363;SDS011;62797;49.740;10.154;2022-12-10T13:38:05;37.78;;;18.70;;
74363;SDS011;62797;49.740;10.154;2022-12-10T13:40:42;35.75;;;18.13;;
74363;SDS011;62797;49.740;10.154;2022-12-10T13:46:50;34.80;;;16.67;;
74363;SDS011;62797;49.740;10.154;2022-12-10T13:49:30;55.42;;;25.80;;
74363;SDS011;62797;49.740;10.154;2022-12-10T13:52:12;68.13;;;31.45;;
74363;SDS011;62797;49.740;10.154;2022-12-10T14:00:07;63.38;;;27.58;;
74363;SDS011;62797;49.740;10.154;2022-12-10T14:02:56;47.25;;;20.77;;
74363;SDS011;62797;49.740;10.154;2022-12-10T14:08:30;39.70;;;16.92;;
74363;SDS011;62797;49.740;10.154;2022-12-10T14:11:02;42.30;;;17.00;;
74363;SDS011;62797;49.740;10.154;2022-12-10T14:13:32;39.40;;;16.95;;
74363;SDS011;62797;49.740;10.154;2022-12-10T14:16:12;39.20;;;17.52;;
74363;SDS011;62797;49.740;10.154;2022-12-10T14:18:41;44.60;;;20.30;;
74363;SDS011;62797;49.740;10.154;2022-12-10T14:21:08;46.20;;;22.88;;
74363;SDS011;62797;49.740;10.154;2022-12-10T14:23:43;56.60;;;27.45;;
74363;SDS011;62797;49.740;10.154;2022-12-10T14:26:12;103.65;;;43.28;;
74363;SDS011;62797;49.740;10.154;2022-12-10T14:28:46;125.70;;;56.45;;
74363;SDS011;62797;49.740;10.154;2022-12-10T14:31:15;76.22;;;36.08;;
74363;SDS011;62797;49.740;10.154;2022-12-10T14:33:45;58.92;;;26.77;;
74363;SDS011;62797;49.740;10.154;2022-12-10T14:36:17;41.90;;;21.30;;
74363;SDS011;62797;49.740;10.154;2022-12-10T14:38:51;35.25;;;17.42;;
74363;SDS011;62797;49.740;10.154;2022-12-10T14:41:18;45.30;;;21.03;;
74363;SDS011;62797;49.740;10.154;2022-12-10T14:43:46;48.22;;;21.67;;
74363;SDS011;62797;49.740;10.154;2022-12-10T14:46:14;39.88;;;20.15;;
74363;SDS011;62797;49.740;10.154;2022-12-10T14:48:42;43.90;;;19.45;;
74363;SDS011;62797;49.740;10.154;2022-12-10T14:51:22;44.10;;;18.13;;
74363;SDS011;62797;49.740;10.154;2022-12-10T14:53:50;39.03;;;17.58;;
74363;SDS011;62797;49.740;10.154;2022-12-10T14:56:26;42.50;;;19.45;;
74363;SDS011;62797;49.740;10.154;2022-12-10T14:58:57;49.20;;;20.85;;
74363;SDS011;62797;49.740;10.154;2022-12-10T15:01:28;46.38;;;20.95;;
74363;SDS011;62797;49.740;10.154;2022-12-10T15:04:06;47.28;;;22.25;;
74363;SDS011;62797;49.740;10.154;2022-12-10T15:06:41;48.38;;;20.70;;
74363;SDS011;62797;49.740;10.154;2022-12-10T15:09:13;51.97;;;22.25;;
74363;SDS011;62797;49.740;10.154;2022-12-10T15:11:57;52.63;;;21.85;;
74363;SDS011;62797;49.740;10.154;2022-12-10T15:14:24;49.33;;;21.27;;
74363;SDS011;62797;49.740;10.154;2022-12-10T15:16:55;59.03;;;25.50;;
74363;SDS011;62797;49.740;10.154;2022-12-10T15:19:31;58.60;;;26.48;;
74363;SDS011;62797;49.740;10.154;2022-12-10T15:21:59;55.33;;;23.97;;
74363;SDS011;62797;49.740;10.154;2022-12-10T15:24:36;45.88;;;20.80;;
74363;SDS011;62797;49.740;10.154;2022-12-10T15:27:19;45.47;;;21.55;;
74363;SDS011;62797;49.740;10.154;2022-12-10T15:29:46;40.70;;;17.67;;
74363;SDS011;62797;49.740;10.154;2022-12-10T15:32:14;35.67;;;18.90;;
74363;SDS011;62797;49.740;10.154;2022-12-10T15:34:46;42.70;;;19.98;;
74363;SDS011;62797;49.740;10.154;2022-12-10T15:37:15;34.03;;;15.30;;
74363;SDS011;62797;49.740;10.154;2022-12-10T15:39:51;37.95;;;18.73;;
74363;SDS011;62797;49.740;10.154;2022-12-10T15:45:16;33.50;;;18.45;;
74363;SDS011;62797;49.740;10.154;2022-12-10T15:47:51;32.40;;;17.42;;
74363;SDS011;62797;49.740;10.154;2022-12-10T15:50:21;37.70;;;17.10;;
74363;SDS011;62797;49.740;10.154;2022-12-10T15:52:47;35.38;;;18.13;;
74363;SDS011;62797;49.740;10.154;2022-12-10T15:55:13;40.40;;;20.08;;
74363;SDS011;62797;49.740;10.154;2022-12-10T16:03:04;30.65;;;15.93;;
74363;SDS011;62797;49.740;10.154;2022-12-10T16:05:36;29.17;;;15.02;;
74363;SDS011;62797;49.740;10.154;2022-12-10T16:08:16;37.30;;;15.63;;
74363;SDS011;62797;49.740;10.154;2022-12-10T16:10:46;39.00;;;18.67;;
74363;SDS011;62797;49.740;10.154;2022-12-10T16:13:16;30.70;;;16.42;;
74363;SDS011;62797;49.740;10.154;2022-12-10T16:15:47;29.48;;;14.95;;
74363;SDS011;62797;49.740;10.154;2022-12-10T16:18:19;24.42;;;14.45;;
74363;SDS011;62797;49.740;10.154;2022-12-10T16:20:45;35.90;;;14.82;;
74363;SDS011;62797;49.740;10.154;2022-12-10T16:23:11;26.90;;;15.50;;
74363;SDS011;62797;49.740;10.154;2022-12-10T16:25:39;29.38;;;15.70;;
74363;SDS011;62797;49.740;10.154;2022-12-10T16:28:10;27.17;;;15.20;;
74363;SDS011;62797;49.740;10.154;2022-12-10T16:30:40;30.38;;;14.10;;
74363;SDS011;62797;49.740;10.154;2022-12-10T16:33:08;27.65;;;13.40;;
74363;SDS011;62797;49.740;10.154;2022-12-10T16:35:34;27.47;;;13.37;;
74363;SDS011;62797;49.740;10.154;2022-12-10T16:37:59;29.77;;;13.80;;
74363;SDS011;62797;49.740;10.154;2022-12-10T16:40:26;27.33;;;13.53;;
74363;SDS011;62797;49.740;10.154;2022-12-10T16:42:53;28.95;;;16.35;;
74363;SDS011;62797;49.740;10.154;2022-12-10T16:45:20;24.85;;;12.57;;